createdAt,value
2022-10-01T00:01:16.537Z,5.13
2022-10-01T00:03:43.840Z,5.07
2022-10-01T00:06:12.112Z,5.07
2022-10-01T00:08:41.320Z,5.06
2022-10-01T00:11:10.395Z,5.06
2022-10-01T00:13:36.972Z,5.05
2022-10-01T00:16:08.655Z,4.94
2022-10-01T00:18:37.118Z,4.92
2022-10-01T00:21:11.762Z,4.86
2022-10-01T00:23:38.367Z,4.84
2022-10-01T00:26:13.419Z,4.68
2022-10-01T00:28:41.082Z,4.76
2022-10-01T00:31:08.846Z,4.60
2022-10-01T00:33:36.171Z,4.65
2022-10-01T00:36:07.691Z,4.65
2022-10-01T00:38:34.611Z,4.69
2022-10-01T00:41:01.657Z,4.60
2022-10-01T00:43:38.811Z,4.70
2022-10-01T00:46:17.079Z,4.67
2022-10-01T00:48:58.169Z,4.66
2022-10-01T00:51:32.594Z,4.50
2022-10-01T00:54:08.311Z,4.60
2022-10-01T00:56:35.280Z,4.60
2022-10-01T00:59:02.418Z,4.67
2022-10-01T01:01:29.024Z,4.65
2022-10-01T01:03:56.634Z,4.77
2022-10-01T01:06:23.177Z,4.67
2022-10-01T01:08:55.217Z,4.76
2022-10-01T01:11:33.049Z,4.82
2022-10-01T01:14:25.659Z,4.88
2022-10-01T01:16:59.736Z,4.83
2022-10-01T01:19:44.743Z,4.81
2022-10-01T01:22:13.989Z,4.63
2022-10-01T01:24:51.169Z,4.84
2022-10-01T01:27:23.387Z,4.86
2022-10-01T01:30:04.556Z,4.75
2022-10-01T01:32:34.617Z,4.65
2022-10-01T01:35:05.496Z,4.66
2022-10-01T01:37:37.998Z,4.65
2022-10-01T01:40:11.565Z,4.66
2022-10-01T01:42:41.393Z,4.66
2022-10-01T01:45:13.606Z,4.71
2022-10-01T01:47:42.113Z,4.84
2022-10-01T01:50:11.401Z,4.93
2022-10-01T01:52:38.396Z,4.72
2022-10-01T01:55:08.638Z,4.69
2022-10-01T01:57:44.045Z,4.79
2022-10-01T02:00:12.690Z,4.83
2022-10-01T02:02:43.893Z,4.77
2022-10-01T02:05:16.019Z,4.75
2022-10-01T02:08:02.626Z,4.83
2022-10-01T02:10:44.693Z,4.78
2022-10-01T02:13:45.863Z,4.66
2022-10-01T02:16:35.395Z,4.77
2022-10-01T02:19:08.228Z,4.69
2022-10-01T02:21:50.326Z,4.88
2022-10-01T02:24:31.371Z,4.82
2022-10-01T02:27:01.560Z,4.80
2022-10-01T02:29:29.507Z,4.70
2022-10-01T02:31:57.200Z,4.76
2022-10-01T02:34:29.003Z,4.87
2022-10-01T02:36:57.465Z,4.89
2022-10-01T02:39:28.486Z,4.96
2022-10-01T02:41:56.559Z,5.07
2022-10-01T02:44:31.220Z,5.03
2022-10-01T02:47:07.734Z,4.94
2022-10-01T02:49:36.216Z,4.83
2022-10-01T02:52:34.180Z,4.79
2022-10-01T02:55:05.176Z,4.82
2022-10-01T02:57:32.848Z,4.98
2022-10-01T03:00:09.793Z,5.02
2022-10-01T03:02:36.424Z,5.15
2022-10-01T03:05:04.179Z,5.10
2022-10-01T03:07:34.615Z,5.04
2022-10-01T03:10:04.752Z,5.03
2022-10-01T03:12:31.664Z,5.02
2022-10-01T03:14:58.119Z,4.82
2022-10-01T03:17:24.739Z,5.00
2022-10-01T03:19:51.116Z,4.95
2022-10-01T03:22:22.420Z,5.00
2022-10-01T03:24:50.093Z,5.06
2022-10-01T03:27:17.529Z,5.13
2022-10-01T03:29:44.548Z,5.03
2022-10-01T03:32:12.070Z,5.09
2022-10-01T03:34:38.582Z,4.93
2022-10-01T03:37:04.968Z,5.04
2022-10-01T03:39:32.688Z,4.95
2022-10-01T03:41:59.181Z,4.96
2022-10-01T03:44:25.573Z,5.00
2022-10-01T03:46:52.070Z,4.97
2022-10-01T03:49:18.434Z,5.03
2022-10-01T03:51:45.544Z,5.05
2022-10-01T03:54:12.753Z,5.05
2022-10-01T03:56:42.637Z,5.04
2022-10-01T03:59:10.950Z,5.02
2022-10-01T04:01:39.316Z,5.00
2022-10-01T04:04:06.629Z,5.01
2022-10-01T04:06:33.350Z,4.96
2022-10-01T04:08:59.840Z,4.97
2022-10-01T04:11:26.407Z,5.02
2022-10-01T04:13:53.062Z,5.02
2022-10-01T04:16:19.668Z,5.03
2022-10-01T04:18:46.220Z,5.03
2022-10-01T04:21:12.877Z,5.09
2022-10-01T04:23:39.362Z,5.10
2022-10-01T04:26:05.861Z,5.14
2022-10-01T04:28:32.446Z,5.02
2022-10-01T04:31:17.692Z,5.13
2022-10-01T04:33:44.864Z,5.21
2022-10-01T04:36:12.026Z,5.24
2022-10-01T04:38:38.512Z,5.30
2022-10-01T04:41:05.003Z,5.29
2022-10-01T04:43:31.529Z,5.35
2022-10-01T04:45:57.986Z,5.40
2022-10-01T04:48:24.573Z,5.32
2022-10-01T04:50:51.092Z,5.38
2022-10-01T04:53:17.546Z,5.32
2022-10-01T04:55:44.009Z,5.41
2022-10-01T04:58:10.533Z,5.18
2022-10-01T05:00:36.958Z,5.27
2022-10-01T05:03:03.567Z,5.27
2022-10-01T05:05:32.914Z,5.23
2022-10-01T05:07:59.485Z,5.23
2022-10-01T05:10:26.219Z,5.24
2022-10-01T05:12:52.977Z,5.24
2022-10-01T05:15:19.800Z,5.11
2022-10-01T05:17:47.262Z,5.11
2022-10-01T05:20:19.958Z,5.25
2022-10-01T05:22:47.378Z,5.32
2022-10-01T05:25:14.145Z,5.35
2022-10-01T05:27:40.964Z,5.01
2022-10-01T05:30:12.365Z,5.31
2022-10-01T05:32:38.998Z,5.37
2022-10-01T05:35:07.698Z,5.29
2022-10-01T05:37:34.947Z,5.44
2022-10-01T05:40:01.943Z,5.40
2022-10-01T05:42:28.434Z,5.47
2022-10-01T05:44:56.053Z,5.48
2022-10-01T05:47:22.870Z,5.48
2022-10-01T05:49:49.472Z,5.54
2022-10-01T05:52:16.427Z,5.45
2022-10-01T05:54:42.957Z,5.38
2022-10-01T05:57:09.601Z,5.45
2022-10-01T05:59:36.237Z,5.49
2022-10-01T06:02:04.197Z,5.64
2022-10-01T06:04:31.399Z,5.53
2022-10-01T06:06:58.097Z,5.61
2022-10-01T06:09:24.589Z,5.57
2022-10-01T06:11:51.009Z,5.79
2022-10-01T06:14:17.510Z,5.77
2022-10-01T06:16:43.886Z,5.80
2022-10-01T06:19:10.513Z,5.93
2022-10-01T06:21:37.328Z,6.08
2022-10-01T06:24:04.089Z,6.12
2022-10-01T06:26:31.170Z,5.99
2022-10-01T06:28:57.677Z,6.13
2022-10-01T06:31:24.352Z,6.20
2022-10-01T06:33:50.867Z,6.15
2022-10-01T06:36:17.443Z,6.22
2022-10-01T06:38:43.824Z,6.28
2022-10-01T06:41:10.693Z,6.41
2022-10-01T06:43:37.202Z,6.26
2022-10-01T06:46:04.783Z,6.33
2022-10-01T06:48:32.497Z,6.46
2022-10-01T06:50:59.666Z,6.63
2022-10-01T06:53:27.752Z,6.55
2022-10-01T06:55:54.584Z,6.52
2022-10-01T06:58:24.395Z,6.89
2022-10-01T07:00:51.065Z,6.86
2022-10-01T07:03:20.260Z,7.00
2022-10-01T07:05:48.069Z,6.96
2022-10-01T07:08:14.864Z,6.96
2022-10-01T07:10:41.861Z,7.21
2022-10-01T07:13:14.270Z,7.34
2022-10-01T07:15:40.806Z,7.42
2022-10-01T07:18:09.458Z,7.47
2022-10-01T07:20:39.718Z,7.73
2022-10-01T07:23:11.950Z,7.94
2022-10-01T07:25:40.481Z,7.76
2022-10-01T07:28:15.917Z,7.93
2022-10-01T07:30:47.559Z,7.73
2022-10-01T07:33:18.092Z,8.08
2022-10-01T07:35:45.156Z,8.17
2022-10-01T07:38:11.604Z,8.22
2022-10-01T07:40:38.138Z,8.40
2022-10-01T07:43:04.924Z,8.39
2022-10-01T07:45:31.470Z,8.26
2022-10-01T07:47:59.554Z,8.34
2022-10-01T07:50:27.783Z,8.39
2022-10-01T07:52:56.197Z,8.57
2022-10-01T07:55:26.358Z,8.56
2022-10-01T07:57:58.056Z,8.62
2022-10-01T08:00:26.314Z,8.63
2022-10-01T08:02:56.025Z,8.84
2022-10-01T08:05:31.412Z,8.86
2022-10-01T08:07:59.867Z,8.86
2022-10-01T08:10:26.620Z,8.83
2022-10-01T08:12:59.797Z,8.89
2022-10-01T08:15:26.344Z,9.16
2022-10-01T08:17:52.921Z,8.98
2022-10-01T08:20:21.450Z,9.23
2022-10-01T08:22:47.921Z,9.55
2022-10-01T08:25:14.342Z,9.40
2022-10-01T08:27:40.910Z,9.42
2022-10-01T08:30:08.144Z,9.42
2022-10-01T08:32:34.660Z,9.59
2022-10-01T08:35:01.260Z,9.53
2022-10-01T08:37:29.152Z,9.63
2022-10-01T08:39:56.433Z,9.69
2022-10-01T08:42:34.170Z,9.65
2022-10-01T08:45:12.798Z,9.71
2022-10-01T08:47:43.781Z,9.72
2022-10-01T08:50:27.986Z,9.54
2022-10-01T08:53:02.455Z,9.76
2022-10-01T08:55:36.346Z,9.70
2022-10-01T08:58:09.956Z,9.60
2022-10-01T09:00:40.277Z,9.76
2022-10-01T09:03:11.784Z,9.78
2022-10-01T09:05:40.970Z,9.61
2022-10-01T09:08:43.706Z,9.86
2022-10-01T09:11:31.324Z,9.87
2022-10-01T09:14:15.881Z,9.78
2022-10-01T09:16:55.689Z,9.79
2022-10-01T09:19:35.091Z,9.87
2022-10-01T09:22:26.147Z,9.64
2022-10-01T09:25:07.009Z,9.91
2022-10-01T09:27:34.088Z,9.94
2022-10-01T09:30:12.185Z,10.02
2022-10-01T09:32:46.972Z,9.86
2022-10-01T09:35:33.124Z,10.04
2022-10-01T09:38:24.249Z,9.90
2022-10-01T09:40:54.743Z,10.03
2022-10-01T09:43:28.641Z,9.69
2022-10-01T09:45:55.269Z,9.93
2022-10-01T09:48:34.577Z,9.97
2022-10-01T09:51:08.698Z,10.00
2022-10-01T09:53:41.257Z,9.88
2022-10-01T09:56:19.019Z,9.78
2022-10-01T09:58:54.293Z,9.76
2022-10-01T10:01:28.417Z,9.67
2022-10-01T10:03:57.399Z,9.61
2022-10-01T10:06:29.841Z,9.58
2022-10-01T10:08:58.402Z,9.62
2022-10-01T10:11:28.366Z,9.79
2022-10-01T10:14:00.269Z,9.63
2022-10-01T10:32:47.158Z,9.21
2022-10-01T10:35:19.111Z,9.43
2022-10-01T10:37:49.684Z,9.59
2022-10-01T10:40:28.434Z,9.62
2022-10-01T10:42:58.520Z,9.49
2022-10-01T10:45:33.182Z,9.63
2022-10-01T10:48:03.847Z,9.40
2022-10-01T10:50:33.757Z,9.49
2022-10-01T10:53:11.157Z,9.19
2022-10-01T10:55:39.097Z,9.20
2022-10-01T10:58:14.912Z,9.36
2022-10-01T11:00:48.192Z,9.50
2022-10-01T11:03:17.433Z,9.59
2022-10-01T11:05:44.476Z,9.43
2022-10-01T11:08:23.790Z,9.29
2022-10-01T11:11:14.454Z,9.74
2022-10-01T11:13:40.939Z,9.58
2022-10-01T11:16:26.126Z,9.56
2022-10-01T11:19:01.607Z,9.69
2022-10-01T11:21:48.360Z,9.62
2022-10-01T11:24:36.696Z,9.80
2022-10-01T11:27:12.309Z,9.57
2022-10-01T11:30:05.480Z,9.69
2022-10-01T11:33:00.591Z,9.71
2022-10-01T11:35:50.626Z,9.62
2022-10-01T11:38:35.199Z,9.69
2022-10-01T11:41:24.864Z,9.36
2022-10-01T11:43:55.580Z,9.69
2022-10-01T11:47:09.525Z,9.54
2022-10-01T11:50:15.954Z,9.70
2022-10-01T11:52:56.619Z,9.67
2022-10-01T11:55:57.226Z,9.71
2022-10-01T11:58:48.541Z,9.59
2022-10-01T12:01:18.761Z,9.53
2022-10-01T12:03:54.338Z,9.64
2022-10-01T12:06:28.414Z,9.93
2022-10-01T12:09:11.919Z,10.05
2022-10-01T12:11:46.489Z,9.77
2022-10-01T12:14:19.783Z,9.62
2022-10-01T12:16:52.564Z,9.68
2022-10-01T12:19:23.156Z,9.71
2022-10-01T12:22:13.533Z,9.82
2022-10-01T12:24:42.919Z,9.96
2022-10-01T12:27:19.943Z,9.94
2022-10-01T12:29:52.513Z,10.44
2022-10-01T12:32:53.144Z,10.29
2022-10-01T12:36:04.356Z,10.18
2022-10-01T12:38:50.409Z,10.22
2022-10-01T12:41:26.029Z,10.13
2022-10-01T12:44:44.506Z,10.17
2022-10-01T12:47:21.695Z,10.50
2022-10-01T12:50:17.522Z,10.76
2022-10-01T12:52:59.450Z,11.03
2022-10-01T12:55:30.695Z,10.97
2022-10-01T12:58:12.852Z,11.02
2022-10-01T13:00:53.293Z,11.18
2022-10-01T13:03:38.270Z,11.32
2022-10-01T13:06:26.976Z,11.13
2022-10-01T13:09:12.379Z,11.19
2022-10-01T13:12:03.038Z,11.02
2022-10-01T13:14:33.075Z,10.83
2022-10-01T13:17:20.805Z,11.06
2022-10-01T13:20:02.984Z,10.68
2022-10-01T13:22:45.386Z,10.82
2022-10-01T13:25:27.052Z,10.22
2022-10-01T13:27:58.341Z,10.11
2022-10-01T13:30:28.887Z,10.17
2022-10-01T13:32:58.332Z,10.18
2022-10-01T13:35:36.487Z,10.12
2022-10-01T13:38:17.077Z,10.28
2022-10-01T13:40:44.481Z,10.49
2022-10-01T13:43:20.402Z,10.29
2022-10-01T13:45:49.668Z,10.35
2022-10-01T13:48:22.039Z,10.66
2022-10-01T13:51:03.505Z,10.83
2022-10-01T13:53:33.430Z,10.47
2022-10-01T13:56:00.577Z,10.49
2022-10-01T13:58:30.049Z,10.55
2022-10-01T14:00:59.652Z,10.55
2022-10-01T14:03:30.143Z,10.55
2022-10-01T14:05:58.687Z,10.49
2022-10-01T14:08:39.141Z,10.37
2022-10-01T14:11:34.682Z,10.43
2022-10-01T14:14:30.952Z,10.26
2022-10-01T14:16:58.436Z,10.23
2022-10-01T14:19:27.390Z,10.40
2022-10-01T14:22:26.313Z,10.49
2022-10-01T14:25:11.524Z,10.67
2022-10-01T14:27:51.352Z,10.63
2022-10-01T14:30:24.390Z,10.71
2022-10-01T14:33:09.832Z,10.75
2022-10-01T14:35:56.581Z,10.74
2022-10-01T14:38:23.240Z,10.97
2022-10-01T14:40:50.431Z,11.19
2022-10-01T14:43:31.309Z,11.08
2022-10-01T14:45:59.386Z,10.95
2022-10-01T14:48:29.065Z,10.96
2022-10-01T14:50:58.715Z,10.98
2022-10-01T14:53:32.243Z,11.06
2022-10-01T14:56:04.860Z,10.95
2022-10-01T14:58:39.312Z,10.92
2022-10-01T15:01:06.696Z,10.87
2022-10-01T15:03:38.609Z,11.07
2022-10-01T15:06:12.257Z,10.90
2022-10-01T15:08:41.584Z,11.24
2022-10-01T15:11:16.242Z,11.31
2022-10-01T15:13:44.899Z,11.51
2022-10-01T15:16:13.901Z,11.33
2022-10-01T15:19:01.474Z,11.39
2022-10-01T15:21:39.572Z,11.58
2022-10-01T15:24:16.319Z,11.41
2022-10-01T15:26:45.731Z,11.54
2022-10-01T15:29:14.559Z,11.54
2022-10-01T15:31:41.837Z,11.55
2022-10-01T15:34:15.217Z,11.58
2022-10-01T15:36:43.002Z,11.60
2022-10-01T15:39:21.273Z,11.45
2022-10-01T15:41:52.512Z,11.66
2022-10-01T15:44:39.245Z,11.66
2022-10-01T15:47:33.032Z,11.72
2022-10-01T15:50:06.776Z,11.77
2022-10-01T15:52:50.647Z,11.59
2022-10-01T15:55:49.443Z,11.63
2022-10-01T15:58:31.449Z,11.63
2022-10-01T16:01:09.337Z,11.49
2022-10-01T16:04:01.840Z,11.53
2022-10-01T16:06:35.974Z,11.46
2022-10-01T16:09:13.209Z,11.54
2022-10-01T16:11:55.251Z,11.47
2022-10-01T16:14:23.481Z,11.42
2022-10-01T16:16:50.715Z,11.46
2022-10-01T16:19:30.348Z,11.50
2022-10-01T16:22:22.709Z,11.38
2022-10-01T16:24:55.007Z,11.38
2022-10-01T16:27:25.327Z,11.25
2022-10-01T16:30:09.078Z,11.34
2022-10-01T16:32:35.752Z,11.42
2022-10-01T16:35:22.233Z,11.44
2022-10-01T16:37:50.813Z,11.24
2022-10-01T16:40:29.895Z,11.17
2022-10-01T16:42:58.311Z,11.14
2022-10-01T16:45:27.796Z,11.16
2022-10-01T16:47:58.020Z,11.15
2022-10-01T16:50:25.159Z,11.15
2022-10-01T16:52:53.371Z,11.05
2022-10-01T16:55:31.304Z,10.95
2022-10-01T16:57:58.161Z,11.06
2022-10-01T17:00:26.227Z,11.07
2022-10-01T17:02:54.709Z,10.79
2022-10-01T17:05:32.829Z,10.75
2022-10-01T17:08:00.951Z,10.97
2022-10-01T17:10:33.843Z,10.91
2022-10-01T17:13:01.979Z,10.92
2022-10-01T17:15:28.461Z,10.77
2022-10-01T17:17:56.911Z,10.73
2022-10-01T17:20:26.429Z,10.80
2022-10-01T17:22:52.937Z,10.76
2022-10-01T17:25:22.381Z,10.86
2022-10-01T17:27:49.231Z,10.84
2022-10-01T17:30:16.504Z,10.73
2022-10-01T17:32:43.354Z,10.77
2022-10-01T17:35:12.455Z,10.90
2022-10-01T17:37:39.783Z,10.83
2022-10-01T17:40:07.989Z,10.81
2022-10-01T17:42:35.606Z,10.78
2022-10-01T17:45:05.674Z,10.78
2022-10-01T17:47:32.245Z,10.81
2022-10-01T17:49:58.671Z,10.98
2022-10-01T17:52:25.150Z,10.86
2022-10-01T17:54:51.621Z,10.89
2022-10-01T17:57:18.381Z,10.94
2022-10-01T17:59:44.800Z,10.77
2022-10-01T18:02:36.683Z,10.87
2022-10-01T18:04:59.904Z,10.81
2022-10-01T18:07:27.028Z,10.90
2022-10-01T18:09:53.895Z,11.03
2022-10-01T18:12:20.713Z,10.82
2022-10-01T18:14:47.682Z,10.94
2022-10-01T18:17:14.200Z,10.87
2022-10-01T18:19:56.056Z,10.80
2022-10-01T18:22:22.598Z,10.78
2022-10-01T18:24:48.977Z,10.80
2022-10-01T18:27:15.550Z,10.82
2022-10-01T18:29:42.000Z,10.80
2022-10-01T18:32:23.375Z,10.76
2022-10-01T18:35:00.501Z,10.95
2022-10-01T18:37:51.304Z,11.01
2022-10-01T18:40:36.693Z,11.06
2022-10-01T18:43:15.760Z,10.91
2022-10-01T18:46:20.600Z,10.82
2022-10-01T18:49:19.150Z,10.88
2022-10-01T18:51:57.663Z,10.90
2022-10-01T18:54:48.784Z,10.86
2022-10-01T18:57:41.844Z,10.79
2022-10-01T19:00:10.978Z,10.74
2022-10-01T19:03:05.422Z,10.87
2022-10-01T19:05:47.262Z,10.84
2022-10-01T19:08:29.294Z,10.67
2022-10-01T19:11:08.376Z,10.86
2022-10-01T19:14:16.543Z,10.72
2022-10-01T19:17:08.796Z,10.62
2022-10-01T19:20:14.945Z,10.69
2022-10-01T19:23:18.656Z,10.84
2022-10-01T19:26:03.304Z,10.85
2022-10-01T19:29:06.743Z,10.80
2022-10-01T19:31:45.899Z,10.69
2022-10-01T19:34:38.706Z,10.69
2022-10-01T19:37:12.767Z,10.56
2022-10-01T19:39:42.959Z,10.50
2022-10-01T19:42:33.147Z,10.53
2022-10-01T19:45:13.218Z,10.50
2022-10-01T19:47:46.829Z,10.40
2022-10-01T19:50:24.927Z,10.62
2022-10-01T19:52:55.565Z,10.55
2022-10-01T19:55:23.724Z,10.65
2022-10-01T19:57:50.543Z,10.72
2022-10-01T20:00:20.095Z,10.50
2022-10-01T20:02:53.944Z,10.48
2022-10-01T20:05:38.024Z,10.45
2022-10-01T20:08:27.602Z,10.63
2022-10-01T20:10:58.012Z,10.63
2022-10-01T20:13:49.125Z,10.70
2022-10-01T20:16:27.155Z,11.01
2022-10-01T20:19:04.877Z,10.79
2022-10-01T20:21:43.265Z,10.60
2022-10-01T20:24:49.962Z,10.57
2022-10-01T20:27:31.536Z,10.74
2022-10-01T20:30:11.917Z,10.56
2022-10-01T20:33:24.030Z,10.63
2022-10-01T20:36:02.141Z,10.62
2022-10-01T20:38:43.674Z,11.17
2022-10-01T20:41:15.137Z,10.80
2022-10-01T20:43:59.526Z,10.75
2022-10-01T20:46:47.145Z,10.68
2022-10-01T20:49:31.992Z,10.78
2022-10-01T20:52:01.046Z,10.63
2022-10-01T20:54:34.056Z,10.60
2022-10-01T20:57:17.639Z,10.78
2022-10-01T20:59:51.466Z,10.73
2022-10-01T21:02:34.945Z,10.71
2022-10-01T21:05:33.299Z,10.65
2022-10-01T21:08:05.142Z,10.97
2022-10-01T21:10:50.466Z,10.73
2022-10-01T21:13:41.334Z,10.67
2022-10-01T21:16:45.177Z,10.78
2022-10-01T21:19:27.082Z,10.69
2022-10-01T21:22:12.534Z,10.70
2022-10-01T21:25:06.427Z,10.88
2022-10-01T21:27:48.271Z,10.75
2022-10-01T21:30:17.488Z,10.84
2022-10-01T21:33:11.924Z,10.73
2022-10-01T21:35:47.381Z,10.71
2022-10-01T21:38:39.574Z,10.96
2022-10-01T21:41:18.673Z,10.94
2022-10-01T21:44:12.122Z,10.81
2022-10-01T21:47:03.473Z,10.83
2022-10-01T21:49:57.554Z,10.67
2022-10-01T21:52:26.860Z,10.70
2022-10-01T21:55:00.913Z,10.84
2022-10-01T21:58:02.046Z,10.85
2022-10-01T22:17:47.357Z,10.34
2022-10-01T22:20:16.935Z,10.46
2022-10-01T22:22:45.709Z,10.52
2022-10-01T22:25:13.733Z,10.63
2022-10-01T22:27:48.683Z,10.79
2022-10-01T22:30:21.370Z,10.87
2022-10-01T22:32:55.540Z,10.91
2022-10-01T22:35:28.391Z,10.94
2022-10-01T22:38:09.809Z,11.06
2022-10-01T22:40:42.063Z,10.97
2022-10-01T22:43:11.613Z,11.15
2022-10-01T22:46:04.243Z,11.05
2022-10-01T22:49:11.007Z,11.15
2022-10-01T22:52:09.568Z,11.04
2022-10-01T22:55:16.894Z,11.11
2022-10-01T22:58:12.414Z,11.13
2022-10-01T23:01:08.624Z,11.26
2022-10-01T23:03:35.384Z,11.21
2022-10-01T23:06:09.860Z,11.09
2022-10-01T23:08:49.663Z,11.18
2022-10-01T23:11:24.983Z,11.29
2022-10-01T23:14:06.622Z,11.25
2022-10-01T23:16:42.277Z,11.21
2022-10-01T23:19:27.947Z,11.15
2022-10-01T23:22:06.668Z,11.14
2022-10-01T23:24:53.116Z,11.14
2022-10-01T23:27:32.450Z,11.10
2022-10-01T23:30:09.877Z,11.14
2022-10-01T23:33:00.501Z,11.11
2022-10-01T23:35:42.805Z,11.16
2022-10-01T23:38:24.229Z,11.17
2022-10-01T23:40:55.620Z,11.23
2022-10-01T23:43:33.214Z,11.25
2022-10-01T23:46:11.386Z,11.21
2022-10-01T23:48:59.721Z,11.19
2022-10-01T23:51:47.787Z,11.17
2022-10-01T23:54:36.047Z,11.13
2022-10-01T23:57:21.072Z,11.09
2022-10-01T23:59:57.384Z,11.07
